Time;durP1;ratioP1;P1;durP2;ratioP2;P2;SDS_P1;SDS_P2;PMS_P1;PMS_P2;Temp;Humidity;BMP_temperature;BMP_pressure;BME280_temperature;BME280_humidity;BME280_pressure;Samples;Min_cycle;Max_cycle;Signal;HPM_P1;HPM_P2
2023/03/11 00:01:11;;;;;;;;;;;;;;;23.40;39.97;93310.56;4997088;28;1414;-72
2023/03/11 00:03:36;;;;;;;;;;;;;;;23.40;39.61;93315.91;4988990;28;1401;-72
2023/03/11 00:06:02;;;;;;;;;;;;;;;23.40;39.97;93319.38;5007485;28;1541;-72
2023/03/11 00:08:27;;;;;;;;;;;;;;;23.40;39.74;93332.75;4996743;28;1362;-72
2023/03/11 00:10:54;;;;;;;;;;;;;;;23.38;39.74;93340.25;5008823;28;1985;-72
2023/03/11 00:13:20;;;;;;;;;;;;;;;23.39;39.73;93354.41;4996994;28;1462;-71
2023/03/11 00:15:47;;;;;;;;;;;;;;;23.39;39.75;93347.19;4973579;28;1488;-73
2023/03/11 00:18:12;;;;;;;;;;;;;;;23.38;39.90;93332.22;5004830;28;1458;-72
2023/03/11 00:20:39;;;;;;;;;;;;;;;23.37;39.96;93333.28;5018979;28;1430;-72
2023/03/11 00:23:05;;;;;;;;;;;;;;;23.38;39.81;93334.88;4997092;28;1366;-72
2023/03/11 00:25:31;;;;;;;;;;;;;;;23.39;39.67;93330.34;4995559;28;1361;-72
2023/03/11 00:27:57;;;;;;;;;;;;;;;23.39;40.05;93325.78;5021914;28;1212;-72
2023/03/11 00:30:23;;;;;;;;;;;;;;;23.38;40.04;93334.88;5013119;28;1910;-72
2023/03/11 00:32:49;;;;;;;;;;;;;;;23.38;39.87;93334.88;5002776;28;1228;-72
2023/03/11 00:35:17;;;;;;;;;;;;;;;23.39;40.04;93324.97;5013097;28;1457;-72
2023/03/11 00:37:44;;;;;;;;;;;;;;;23.35;40.22;93319.34;4982932;28;1493;-71
2023/03/11 00:40:14;;;;;;;;;;;;;;;23.35;40.41;93316.69;4995490;28;1220;-70
2023/03/11 00:42:39;;;;;;;;;;;;;;;23.34;40.46;93318.56;5014615;28;1397;-70
2023/03/11 00:45:05;;;;;;;;;;;;;;;23.30;40.69;93324.69;5006537;28;1361;-69
2023/03/11 00:47:30;;;;;;;;;;;;;;;23.29;41.04;93334.59;4998382;28;1307;-70
2023/03/11 00:49:55;;;;;;;;;;;;;;;23.32;40.79;93333.25;4984434;28;1910;-71
2023/03/11 00:52:20;;;;;;;;;;;;;;;23.33;41.00;93330.31;5006987;28;1485;-72
2023/03/11 00:54:46;;;;;;;;;;;;;;;23.40;40.66;93316.69;5006667;28;1307;-70
2023/03/11 00:57:11;;;;;;;;;;;;;;;23.39;40.73;93314.28;5008175;28;1481;-72
2023/03/11 00:59:36;;;;;;;;;;;;;;;23.35;40.74;93305.97;4993313;28;1414;-71
2023/03/11 01:02:02;;;;;;;;;;;;;;;23.38;40.71;93299.31;5011405;28;1351;-68
2023/03/11 01:04:27;;;;;;;;;;;;;;;23.39;40.68;93282.16;5010827;28;1334;-68
2023/03/11 01:06:52;;;;;;;;;;;;;;;23.39;40.81;93282.16;4994821;28;945;-69
2023/03/11 01:09:17;;;;;;;;;;;;;;;23.40;40.99;93281.91;4994722;28;804;-70
2023/03/11 01:11:43;;;;;;;;;;;;;;;23.41;40.84;93280.03;4984772;28;2029;-68
2023/03/11 01:14:08;;;;;;;;;;;;;;;23.42;41.04;93270.94;4977301;28;1373;-69
2023/03/11 01:16:34;;;;;;;;;;;;;;;23.39;41.18;93264.22;4994417;28;1402;-69
2023/03/11 01:18:59;;;;;;;;;;;;;;;23.43;40.88;93268.00;4982385;28;1426;-69
2023/03/11 01:21:24;;;;;;;;;;;;;;;23.41;40.77;93270.13;5010726;28;1429;-69
2023/03/11 01:23:50;;;;;;;;;;;;;;;23.40;41.18;93265.84;4986183;28;1433;-70
2023/03/11 01:26:15;;;;;;;;;;;;;;;23.38;41.42;93261.84;4994493;28;1418;-69
2023/03/11 01:28:40;;;;;;;;;;;;;;;23.38;41.21;93251.94;5009694;28;1225;-69
2023/03/11 01:31:06;;;;;;;;;;;;;;;23.40;41.52;93257.03;4999399;28;1906;-69
2023/03/11 01:33:31;;;;;;;;;;;;;;;23.39;41.34;93244.72;4997181;28;1529;-68
2023/03/11 01:35:56;;;;;;;;;;;;;;;23.36;41.53;93240.69;5002731;28;1252;-68
2023/03/11 01:38:21;;;;;;;;;;;;;;;23.36;41.47;93243.38;5009080;28;1215;-67
2023/03/11 01:40:48;;;;;;;;;;;;;;;23.34;41.51;93224.91;5004026;28;1520;-68
2023/03/11 01:43:32;;;;;;;;;;;;;;;23.36;41.51;93213.94;4976730;28;1553;-68
2023/03/11 01:45:57;;;;;;;;;;;;;;;23.38;41.64;93206.44;4999409;28;1347;-68
2023/03/11 01:48:23;;;;;;;;;;;;;;;23.35;41.45;93193.59;4989826;28;1290;-68
2023/03/11 01:50:49;;;;;;;;;;;;;;;23.36;41.50;93192.53;4995804;28;1936;-68
2023/03/11 01:53:15;;;;;;;;;;;;;;;23.34;41.76;93189.34;4995044;28;1457;-67
2023/03/11 01:55:41;;;;;;;;;;;;;;;23.33;41.50;93190.38;4975923;28;1456;-67
2023/03/11 01:58:09;;;;;;;;;;;;;;;23.34;41.68;93194.69;5006682;28;1396;-67
2023/03/11 02:00:36;;;;;;;;;;;;;;;23.37;41.43;93212.06;4995075;28;1326;-68
2023/03/11 02:03:05;;;;;;;;;;;;;;;23.39;41.68;93213.41;5006609;28;1332;-68
2023/03/11 02:05:32;;;;;;;;;;;;;;;23.41;41.92;93221.16;5008800;28;1504;-68
2023/03/11 02:07:57;;;;;;;;;;;;;;;23.37;41.51;93244.16;4988786;28;1330;-67
2023/03/11 02:10:23;;;;;;;;;;;;;;;23.38;41.61;93249.25;5000834;28;1910;-68
2023/03/11 02:12:49;;;;;;;;;;;;;;;23.38;41.68;93251.94;5008945;28;1470;-68
2023/03/11 02:15:15;;;;;;;;;;;;;;;23.39;41.66;93253.53;4996886;28;1485;-69
2023/03/11 02:17:41;;;;;;;;;;;;;;;23.39;41.29;93248.19;4993029;28;1375;-67
2023/03/11 02:20:11;;;;;;;;;;;;;;;23.43;41.13;93245.78;4989866;28;1409;-66
2023/03/11 02:22:37;;;;;;;;;;;;;;;23.38;41.54;93254.63;5011582;28;1330;-67
2023/03/11 02:25:02;;;;;;;;;;;;;;;23.40;41.39;93270.41;5010372;28;1442;-67
2023/03/11 02:27:30;;;;;;;;;;;;;;;23.39;41.33;93277.63;5003463;28;1417;-67
2023/03/11 02:29:57;;;;;;;;;;;;;;;23.37;41.58;93273.59;4978257;28;1977;-66
2023/03/11 02:32:23;;;;;;;;;;;;;;;23.37;41.41;93262.88;4993044;28;1393;-67
2023/03/11 02:34:48;;;;;;;;;;;;;;;23.33;41.68;93267.97;4989862;28;1374;-67
2023/03/11 02:37:14;;;;;;;;;;;;;;;23.39;41.61;93269.59;5014471;28;1369;-67
2023/03/11 02:39:44;;;;;;;;;;;;;;;23.41;41.28;93269.34;5007509;28;1409;-68
2023/03/11 02:42:12;;;;;;;;;;;;;;;23.41;41.48;93272.81;5014596;28;1221;-68
2023/03/11 02:44:38;;;;;;;;;;;;;;;23.39;41.43;93269.59;4984372;28;1552;-67
2023/03/11 02:47:03;;;;;;;;;;;;;;;23.39;41.51;93268.78;4980667;28;1342;-69
2023/03/11 02:49:29;;;;;;;;;;;;;;;23.39;41.69;93272.25;5003616;28;1414;-70
2023/03/11 02:51:54;;;;;;;;;;;;;;;23.41;41.35;93283.50;4988764;28;1894;-70
2023/03/11 02:54:19;;;;;;;;;;;;;;;23.41;41.40;93296.88;4996648;28;1354;-70
2023/03/11 02:56:44;;;;;;;;;;;;;;;23.39;41.25;93296.34;5016417;28;1429;-70
2023/03/11 02:59:10;;;;;;;;;;;;;;;23.40;41.28;93287.28;5008022;28;1477;-67
2023/03/11 03:01:35;;;;;;;;;;;;;;;23.38;41.59;93292.06;4992747;28;1423;-68
2023/03/11 03:04:00;;;;;;;;;;;;;;;23.40;41.06;93292.63;4999186;28;1465;-68
2023/03/11 03:06:27;;;;;;;;;;;;;;;23.38;41.34;93281.38;5007414;28;1267;-69
2023/03/11 03:08:52;;;;;;;;;;;;;;;23.40;41.34;93283.78;4988687;28;1382;-69
2023/03/11 03:11:18;;;;;;;;;;;;;;;23.40;41.43;93286.47;4997097;28;1972;-69
2023/03/11 03:13:43;;;;;;;;;;;;;;;23.41;41.21;93285.38;4995969;28;1430;-69
2023/03/11 03:16:08;;;;;;;;;;;;;;;23.36;41.41;93286.16;5006265;28;1330;-68
2023/03/11 03:18:34;;;;;;;;;;;;;;;23.38;41.48;93286.72;5014248;28;1508;-70
2023/03/11 03:20:59;;;;;;;;;;;;;;;23.41;41.33;93283.50;4994922;28;1446;-70
2023/03/11 03:23:24;;;;;;;;;;;;;;;23.38;41.25;93275.22;4998468;28;1551;-70
2023/03/11 03:25:50;;;;;;;;;;;;;;;23.40;41.38;93273.88;5016292;28;1481;-69
2023/03/11 03:28:15;;;;;;;;;;;;;;;23.38;41.25;93280.56;5006031;28;1472;-67
2023/03/11 03:30:40;;;;;;;;;;;;;;;23.38;41.23;93270.66;5001434;28;1967;-66
2023/03/11 03:33:06;;;;;;;;;;;;;;;23.40;41.39;93271.22;5014137;28;1296;-66
2023/03/11 03:35:32;;;;;;;;;;;;;;;23.40;41.42;93270.41;5002340;28;1262;-67
2023/03/11 03:37:58;;;;;;;;;;;;;;;23.34;41.64;93277.63;5007676;28;1292;-66
2023/03/11 03:40:23;;;;;;;;;;;;;;;23.28;41.99;93276.81;4994002;28;1327;-67
2023/03/11 03:42:48;;;;;;;;;;;;;;;23.35;41.45;93282.69;5012397;28;1457;-67
2023/03/11 03:45:14;;;;;;;;;;;;;;;23.36;41.44;93262.09;5002999;28;1357;-67
2023/03/11 03:47:39;;;;;;;;;;;;;;;23.35;41.65;93265.84;5015245;28;1330;-67
2023/03/11 03:50:06;;;;;;;;;;;;;;;23.32;41.47;93272.53;4984345;28;1949;-67
2023/03/11 03:52:31;;;;;;;;;;;;;;;23.28;41.63;93276.81;4990255;28;1375;-67
2023/03/11 03:54:57;;;;;;;;;;;;;;;23.25;41.49;93257.78;4991452;28;1369;-67
2023/03/11 03:57:22;;;;;;;;;;;;;;;23.22;41.47;93252.97;5007517;28;1271;-66
2023/03/11 03:59:47;;;;;;;;;;;;;;;23.24;41.61;93269.56;5002628;28;1402;-67
2023/03/11 04:02:13;;;;;;;;;;;;;;;23.24;41.23;93273.03;4986931;28;1276;-67
2023/03/11 04:04:38;;;;;;;;;;;;;;;23.18;41.52;93273.31;4994608;28;1464;-67
2023/03/11 04:07:04;;;;;;;;;;;;;;;23.19;41.55;93259.66;5000806;28;1485;-67
2023/03/11 04:09:30;;;;;;;;;;;;;;;23.16;41.52;93272.75;5019103;28;1523;-67
2023/03/11 04:11:55;;;;;;;;;;;;;;;23.26;41.17;93280.81;5005989;28;1973;-67
2023/03/11 04:14:21;;;;;;;;;;;;;;;23.21;41.35;93262.06;4976253;28;1404;-67
2023/03/11 04:16:46;;;;;;;;;;;;;;;23.20;41.19;93265.81;5014682;28;1330;-67
2023/03/11 04:19:11;;;;;;;;;;;;;;;23.21;41.20;93278.13;4994488;28;1323;-66
2023/03/11 04:21:36;;;;;;;;;;;;;;;23.22;41.58;93271.69;5013118;28;1378;-67
2023/03/11 04:24:02;;;;;;;;;;;;;;;23.20;41.38;93279.19;4968338;28;1395;-67
2023/03/11 04:26:27;;;;;;;;;;;;;;;23.23;41.15;93274.13;4978173;28;1438;-67
2023/03/11 04:28:53;;;;;;;;;;;;;;;23.29;41.47;93285.63;4980369;28;1363;-66
2023/03/11 04:31:18;;;;;;;;;;;;;;;23.34;41.30;93283.78;5012674;28;1957;-66
2023/03/11 04:33:43;;;;;;;;;;;;;;;23.36;41.23;93286.16;5013942;28;1299;-66
2023/03/11 04:36:09;;;;;;;;;;;;;;;23.38;41.10;93286.72;4974040;28;1485;-66
2023/03/11 04:38:34;;;;;;;;;;;;;;;23.40;41.17;93284.59;4999803;28;1438;-66
2023/03/11 04:41:03;;;;;;;;;;;;;;;23.39;41.08;93282.16;5027381;28;1337;-66
2023/03/11 04:43:29;;;;;;;;;;;;;;;23.39;41.30;93277.63;5014088;28;1370;-66
2023/03/11 04:45:55;;;;;;;;;;;;;;;23.37;41.21;93271.75;5011900;28;1334;-66
2023/03/11 04:48:20;;;;;;;;;;;;;;;23.37;41.31;93271.75;4974273;28;1394;-66
2023/03/11 04:50:46;;;;;;;;;;;;;;;23.38;41.13;93262.63;4994981;28;1910;-65
2023/03/11 04:53:11;;;;;;;;;;;;;;;23.36;41.17;93264.75;4995077;28;1438;-65
2023/03/11 04:55:36;;;;;;;;;;;;;;;23.37;40.92;93274.41;4987370;28;1446;-65
2023/03/11 04:58:02;;;;;;;;;;;;;;;23.39;41.16;93271.47;5003457;28;1417;-65
2023/03/11 05:00:27;;;;;;;;;;;;;;;23.38;41.09;93276.00;5010784;28;1481;-66
2023/03/11 05:02:53;;;;;;;;;;;;;;;23.37;41.25;93279.78;5004965;28;1401;-66
2023/03/11 05:05:19;;;;;;;;;;;;;;;23.39;41.20;93287.53;5010801;28;1409;-66
2023/03/11 05:07:44;;;;;;;;;;;;;;;23.37;41.25;93285.13;4990401;28;1405;-66
2023/03/11 05:10:10;;;;;;;;;;;;;;;23.39;41.33;93287.53;5003590;28;1973;-66
2023/03/11 05:12:35;;;;;;;;;;;;;;;23.40;41.15;93289.16;5010221;28;1465;-67
2023/03/11 05:15:00;;;;;;;;;;;;;;;23.39;41.40;93293.66;4985538;28;1342;-67
2023/03/11 05:17:25;;;;;;;;;;;;;;;23.39;41.21;93299.03;5013734;28;1493;-66
2023/03/11 05:19:52;;;;;;;;;;;;;;;23.40;41.29;93299.84;5003477;28;1208;-67
2023/03/11 05:22:18;;;;;;;;;;;;;;;23.40;41.13;93306.00;4986264;28;1449;-66
2023/03/11 05:24:43;;;;;;;;;;;;;;;23.39;41.42;93320.44;4986081;28;1390;-66
2023/03/11 05:27:09;;;;;;;;;;;;;;;23.37;41.28;93306.53;4986386;28;1473;-66
2023/03/11 05:29:34;;;;;;;;;;;;;;;23.38;41.53;93313.47;4995652;28;1351;-66
2023/03/11 05:31:59;;;;;;;;;;;;;;;23.39;41.39;93309.72;4994494;28;1922;-66
2023/03/11 05:34:25;;;;;;;;;;;;;;;23.39;41.15;93320.44;4992199;28;1366;-66
2023/03/11 05:36:50;;;;;;;;;;;;;;;23.38;41.38;93320.72;4991808;28;1489;-66
2023/03/11 05:39:15;;;;;;;;;;;;;;;23.37;41.55;93327.94;5007984;28;1390;-66
2023/03/11 05:41:41;;;;;;;;;;;;;;;23.38;41.33;93323.38;4992348;28;1342;-66
2023/03/11 05:44:06;;;;;;;;;;;;;;;23.36;41.33;93328.97;5003021;28;1477;-66
2023/03/11 05:46:31;;;;;;;;;;;;;;;23.38;41.61;93337.56;5010428;28;1453;-67
2023/03/11 05:48:58;;;;;;;;;;;;;;;23.39;41.64;93338.34;4995183;28;1330;-65
2023/03/11 05:51:23;;;;;;;;;;;;;;;23.32;41.79;93347.44;5009504;28;1965;-66
2023/03/11 05:53:49;;;;;;;;;;;;;;;23.34;41.44;93348.00;5012212;28;1351;-66
2023/03/11 05:56:14;;;;;;;;;;;;;;;23.33;41.79;93358.94;5002741;28;1192;-66
2023/03/11 05:58:40;;;;;;;;;;;;;;;23.36;41.90;93358.41;4993563;28;1414;-66
2023/03/11 06:01:09;;;;;;;;;;;;;;;23.16;36.70;93366.38;4989464;28;1400;-66
2023/03/11 06:03:35;;;;;;;;;;;;;;;22.27;36.56;93365.31;4981519;28;1429;-65
2023/03/11 06:06:00;;;;;;;;;;;;;;;22.01;35.83;93381.88;4987239;28;1334;-65
2023/03/11 06:08:25;;;;;;;;;;;;;;;21.56;36.81;93375.06;4979520;28;1382;-65
2023/03/11 06:10:50;;;;;;;;;;;;;;;21.39;37.12;93378.88;4979652;28;1922;-65
2023/03/11 06:13:16;;;;;;;;;;;;;;;21.10;37.59;93381.72;4974273;28;1346;-65
2023/03/11 06:15:42;;;;;;;;;;;;;;;20.89;37.62;93370.81;4978171;28;1415;-65
2023/03/11 06:18:08;;;;;;;;;;;;;;;20.74;37.80;93367.91;4978262;28;1426;-65
2023/03/11 06:20:33;;;;;;;;;;;;;;;20.69;38.03;93367.88;4979480;28;1322;-65
2023/03/11 06:22:58;;;;;;;;;;;;;;;20.75;38.03;93377.53;5004508;28;1364;-65
2023/03/11 06:25:23;;;;;;;;;;;;;;;20.67;38.19;93368.09;4993467;28;1037;-65
2023/03/11 06:27:50;;;;;;;;;;;;;;;20.72;38.01;93375.38;4993455;28;886;-65
2023/03/11 06:30:16;;;;;;;;;;;;;;;20.85;37.70;93372.31;4983500;28;1898;-65
2023/03/11 06:32:45;;;;;;;;;;;;;;;20.70;37.26;93374.81;4993458;28;910;-65
2023/03/11 06:35:10;;;;;;;;;;;;;;;20.73;36.61;93371.66;4996385;28;1176;-65
2023/03/11 06:37:36;;;;;;;;;;;;;;;20.77;36.77;93367.41;4980495;28;1342;-65
2023/03/11 06:40:01;;;;;;;;;;;;;;;20.65;36.66;93364.06;4979983;28;1387;-65
2023/03/11 06:42:27;;;;;;;;;;;;;;;20.61;36.79;93373.63;4970186;28;1350;-65
2023/03/11 06:44:52;;;;;;;;;;;;;;;20.53;36.64;93374.03;4996286;28;1255;-65
2023/03/11 06:47:17;;;;;;;;;;;;;;;20.61;36.60;93371.75;4986238;28;1478;-65
2023/03/11 06:49:43;;;;;;;;;;;;;;;20.56;36.73;93365.56;4993238;28;1906;-65
2023/03/11 06:52:08;;;;;;;;;;;;;;;20.56;36.88;93361.03;4975496;28;1481;-66
2023/03/11 06:54:34;;;;;;;;;;;;;;;20.63;36.96;93374.16;4988083;28;1371;-66
2023/03/11 06:56:59;;;;;;;;;;;;;;;20.86;36.25;93367.81;4991728;28;1414;-66
2023/03/11 06:59:27;;;;;;;;;;;;;;;20.67;35.83;93369.97;4992639;28;1349;-65
2023/03/11 07:01:52;;;;;;;;;;;;;;;20.54;36.31;93378.31;5002699;28;1370;-65
2023/03/11 07:04:17;;;;;;;;;;;;;;;20.39;36.39;93368.19;4985202;28;1268;-66
2023/03/11 07:06:43;;;;;;;;;;;;;;;20.51;37.30;93370.78;5012943;28;886;-65
2023/03/11 07:09:08;;;;;;;;;;;;;;;20.53;36.64;93369.50;4995141;28;1228;-65
2023/03/11 07:11:33;;;;;;;;;;;;;;;20.44;36.40;93361.09;5013024;28;1914;-65
2023/03/11 07:13:59;;;;;;;;;;;;;;;20.57;36.59;93367.16;4989876;28;1322;-65
2023/03/11 07:16:25;;;;;;;;;;;;;;;20.64;36.55;93373.13;5007536;28;1201;-66
2023/03/11 07:18:51;;;;;;;;;;;;;;;20.32;37.62;93371.03;4996230;28;1321;-74
2023/03/11 07:21:18;;;;;;;;;;;;;;;19.84;38.16;93375.06;5016296;28;958;-67
2023/03/11 07:23:43;;;;;;;;;;;;;;;19.92;38.39;93363.19;5016606;28;831;-72
2023/03/11 07:26:10;;;;;;;;;;;;;;;20.04;37.66;93361.28;5006231;28;1043;-73
2023/03/11 07:28:35;;;;;;;;;;;;;;;19.43;38.33;93355.69;5016212;28;823;-73
2023/03/11 07:31:05;;;;;;;;;;;;;;;19.28;38.88;93350.09;5016048;28;1906;-72
2023/03/11 07:33:30;;;;;;;;;;;;;;;19.18;39.07;93345.41;4998539;28;1317;-73
2023/03/11 07:35:56;;;;;;;;;;;;;;;19.20;38.74;93337.19;4997966;28;1522;-72
2023/03/11 07:38:21;;;;;;;;;;;;;;;19.41;39.04;93347.16;5005875;28;1064;-72
2023/03/11 07:40:46;;;;;;;;;;;;;;;20.05;38.10;93344.25;4998173;28;1351;-70
2023/03/11 07:43:11;;;;;;;;;;;;;;;20.00;38.58;93338.84;5015805;28;892;-68
2023/03/11 07:45:37;;;;;;;;;;;;;;;19.68;38.75;93338.59;5015956;28;878;-70
2023/03/11 07:48:02;;;;;;;;;;;;;;;19.46;38.56;93331.28;5010019;28;1192;-68
2023/03/11 07:50:27;;;;;;;;;;;;;;;20.44;38.32;93325.69;5010128;28;1913;-73
2023/03/11 07:52:53;;;;;;;;;;;;;;;21.13;37.45;93327.88;4997563;28;1378;-75
2023/03/11 07:55:18;;;;;;;;;;;;;;;21.36;37.75;93324.13;5016228;28;919;-75
2023/03/11 07:57:45;;;;;;;;;;;;;;;21.37;37.63;93317.75;5015594;28;1058;-75
2023/03/11 08:00:11;;;;;;;;;;;;;;;21.31;38.08;93303.53;5005517;28;1133;-75
2023/03/11 08:02:36;;;;;;;;;;;;;;;21.35;37.90;93303.88;4996559;28;1452;-76
2023/03/11 08:05:02;;;;;;;;;;;;;;;21.39;37.76;93298.84;5015503;28;925;-75
2023/03/11 08:07:29;;;;;;;;;;;;;;;21.51;37.25;93302.97;4998155;28;1273;-75
2023/03/11 08:09:55;;;;;;;;;;;;;;;21.31;37.38;93303.53;5015530;28;1977;-75
2023/03/11 08:12:20;;;;;;;;;;;;;;;21.02;37.40;93288.84;4987929;28;1223;-75
2023/03/11 08:14:45;;;;;;;;;;;;;;;21.15;37.45;93283.13;5004417;28;1280;-75
2023/03/11 08:17:11;;;;;;;;;;;;;;;21.17;37.31;93277.53;5006383;28;1254;-75
2023/03/11 08:19:36;;;;;;;;;;;;;;;21.06;37.39;93274.78;5014731;28;1192;-72
2023/03/11 08:22:02;;;;;;;;;;;;;;;21.11;36.82;93268.66;4980352;28;1231;-73
2023/03/11 08:24:27;;;;;;;;;;;;;;;21.08;36.63;93266.50;5007482;28;1552;-73
2023/03/11 08:26:54;;;;;;;;;;;;;;;21.21;37.03;93265.31;5003659;28;1401;-73
2023/03/11 08:29:19;;;;;;;;;;;;;;;21.30;36.92;93264.59;5011259;28;922;-73
2023/03/11 08:31:44;;;;;;;;;;;;;;;21.29;36.99;93262.19;5014124;28;1906;-74
2023/03/11 08:34:10;;;;;;;;;;;;;;;21.31;36.69;93255.53;4982340;28;1433;-72
2023/03/11 08:36:36;;;;;;;;;;;;;;;21.43;36.71;93251.94;4995437;28;796;-72
2023/03/11 08:39:01;;;;;;;;;;;;;;;21.37;36.24;93250.28;5000020;28;1393;-72
2023/03/11 08:41:27;;;;;;;;;;;;;;;21.34;36.16;93255.06;5004570;28;1549;-72
2023/03/11 08:43:52;;;;;;;;;;;;;;;21.46;35.85;93256.75;5018650;28;1405;-75
2023/03/11 08:46:20;;;;;;;;;;;;;;;21.49;36.17;93235.72;4998872;28;1442;-73
2023/03/11 08:48:45;;;;;;;;;;;;;;;21.70;35.90;93238.56;5004348;28;1247;-73
2023/03/11 08:51:11;;;;;;;;;;;;;;;21.78;35.83;93230.88;5011851;28;1956;-73
2023/03/11 08:53:37;;;;;;;;;;;;;;;21.77;35.73;93220.44;4988472;28;1437;-71
2023/03/11 08:56:02;;;;;;;;;;;;;;;21.74;35.87;93224.47;4990821;28;1548;-71
2023/03/11 08:58:28;;;;;;;;;;;;;;;21.66;36.02;93229.44;4977302;28;1411;-71
2023/03/11 09:00:54;;;;;;;;;;;;;;;21.69;36.66;93216.41;4989700;28;1422;-70
2023/03/11 09:03:19;;;;;;;;;;;;;;;21.85;36.09;93211.97;5003253;28;1451;-71
2023/03/11 09:05:44;;;;;;;;;;;;;;;21.88;36.08;93227.47;5005675;28;1398;-72
2023/03/11 09:08:10;;;;;;;;;;;;;;;21.84;36.28;93225.59;4985506;28;1312;-73
2023/03/11 09:10:35;;;;;;;;;;;;;;;21.86;36.05;93210.09;5008336;28;1906;-73
2023/03/11 09:13:00;;;;;;;;;;;;;;;21.78;36.23;93212.19;4990528;28;1397;-73
2023/03/11 09:15:26;;;;;;;;;;;;;;;21.79;36.23;93213.78;5014455;28;858;-73
2023/03/11 09:17:51;;;;;;;;;;;;;;;21.78;35.99;93211.41;5004239;28;1484;-73
2023/03/11 09:20:17;;;;;;;;;;;;;;;21.86;37.04;93215.44;5003706;28;1473;-72
2023/03/11 09:22:42;;;;;;;;;;;;;;;22.27;39.39;93223.75;4997641;28;1402;-73
2023/03/11 09:25:08;;;;;;;;;;;;;;;22.10;37.05;93218.53;5014118;28;965;-73
2023/03/11 09:27:34;;;;;;;;;;;;;;;21.89;37.00;93207.75;5014148;28;887;-73
2023/03/11 09:29:59;;;;;;;;;;;;;;;21.80;37.11;93209.28;5002801;28;1965;-74
2023/03/11 09:32:24;;;;;;;;;;;;;;;21.56;36.14;93203.50;4985094;28;1343;-74
2023/03/11 09:34:49;;;;;;;;;;;;;;;21.38;36.05;93195.91;5006299;28;1278;-73
2023/03/11 09:37:15;;;;;;;;;;;;;;;21.36;35.97;93197.97;4984482;28;1307;-73
2023/03/11 09:39:40;;;;;;;;;;;;;;;21.46;35.38;93198.06;4994436;28;1415;-73
2023/03/11 09:42:18;;;;;;;;;;;;;;;21.58;35.59;93200.59;4987355;28;1589;-74
2023/03/11 09:44:55;;;;;;;;;;;;;;;21.60;34.94;93188.59;4997276;28;1288;-73
2023/03/11 09:47:33;;;;;;;;;;;;;;;21.63;34.98;93189.94;4992658;28;1252;-74
2023/03/11 09:50:07;;;;;;;;;;;;;;;21.64;35.33;93195.03;4994534;28;1902;-74
2023/03/11 09:52:38;;;;;;;;;;;;;;;21.63;35.34;93198.75;5018381;28;1206;-74
2023/03/11 09:55:05;;;;;;;;;;;;;;;21.68;34.98;93188.09;4989025;28;1393;-74
2023/03/11 09:57:35;;;;;;;;;;;;;;;21.73;35.31;93187.34;4990806;28;1393;-74
2023/03/11 10:00:03;;;;;;;;;;;;;;;21.74;35.16;93189.78;5013189;28;1473;-73
2023/03/11 10:02:29;;;;;;;;;;;;;;;21.74;35.15;93183.59;5012712;28;1210;-72
2023/03/11 10:05:00;;;;;;;;;;;;;;;21.73;35.35;93182.81;5003471;28;1585;-72
2023/03/11 10:07:42;;;;;;;;;;;;;;;21.74;35.10;93188.94;4995660;28;1316;-72
2023/03/11 10:10:12;;;;;;;;;;;;;;;21.75;35.23;93195.91;4995380;28;1902;-72
2023/03/11 10:12:37;;;;;;;;;;;;;;;21.72;34.95;93186.53;5001995;28;1314;-72
2023/03/11 10:15:18;;;;;;;;;;;;;;;21.99;35.07;93190.97;5013310;28;819;-72
2023/03/11 10:17:43;;;;;;;;;;;;;;;21.93;34.72;93202.69;5004846;28;1267;-74
2023/03/11 10:20:08;;;;;;;;;;;;;;;21.96;34.55;93202.16;5006546;28;1251;-73
2023/03/11 10:22:39;;;;;;;;;;;;;;;21.87;34.13;93196.50;5009520;28;1101;-73
2023/03/11 10:25:09;;;;;;;;;;;;;;;21.92;33.95;93206.44;5032920;28;870;-74
2023/03/11 10:27:39;;;;;;;;;;;;;;;21.87;34.19;93198.38;5006002;28;1220;-74
2023/03/11 10:30:19;;;;;;;;;;;;;;;21.91;34.39;93204.81;5011882;28;1898;-73
2023/03/11 10:32:57;;;;;;;;;;;;;;;21.87;33.14;93203.72;5012535;28;1003;-74
2023/03/11 10:35:23;;;;;;;;;;;;;;;21.95;33.42;93205.91;5001325;28;1235;-74
2023/03/11 10:38:15;;;;;;;;;;;;;;;22.07;33.26;93205.72;5001812;28;1395;-73
2023/03/11 10:40:41;;;;;;;;;;;;;;;22.03;33.07;93202.75;4971383;28;1315;-74
2023/03/11 10:43:18;;;;;;;;;;;;;;;22.01;32.88;93203.00;5000769;28;1685;-74
2023/03/11 10:45:47;;;;;;;;;;;;;;;21.97;32.94;93209.09;5012886;28;1268;-74
2023/03/11 10:48:13;;;;;;;;;;;;;;;22.05;32.74;93205.16;5005451;28;1513;-74
2023/03/11 10:50:58;;;;;;;;;;;;;;;21.89;32.77;93196.25;5002854;28;1902;-74
2023/03/11 10:53:24;;;;;;;;;;;;;;;21.84;32.82;93205.03;4995246;28;1280;-74
2023/03/11 10:55:51;;;;;;;;;;;;;;;21.77;32.66;93207.94;5015009;28;1366;-75
2023/03/11 10:58:18;;;;;;;;;;;;;;;21.76;32.36;93211.66;5014481;28;1401;-74
2023/03/11 11:00:43;;;;;;;;;;;;;;;21.69;32.60;93216.41;4995235;28;1426;-74
2023/03/11 11:03:16;;;;;;;;;;;;;;;21.59;32.38;93221.66;4990410;28;1371;-75
2023/03/11 11:05:41;;;;;;;;;;;;;;;21.62;32.54;93223.03;5025827;28;1201;-72
2023/03/11 11:08:11;;;;;;;;;;;;;;;21.58;32.64;93232.59;5017776;28;1160;-72
2023/03/11 11:10:47;;;;;;;;;;;;;;;21.53;31.91;93242.16;4995933;28;1964;-72
2023/03/11 11:13:12;;;;;;;;;;;;;;;21.49;32.35;93241.06;4999609;28;1188;-73
2023/03/11 11:15:49;;;;;;;;;;;;;;;21.37;32.70;93236.94;5016308;28;982;-72
2023/03/11 11:18:19;;;;;;;;;;;;;;;21.38;32.82;93233.25;5015401;28;1148;-72
2023/03/11 11:21:11;;;;;;;;;;;;;;;21.46;32.78;93227.41;5004830;28;1330;-72
2023/03/11 11:23:48;;;;;;;;;;;;;;;21.54;33.16;93216.28;5010895;28;1287;-74
2023/03/11 11:26:19;;;;;;;;;;;;;;;21.55;33.30;93212.56;5000932;28;1397;-74
2023/03/11 11:28:45;;;;;;;;;;;;;;;21.54;33.04;93210.94;5022792;28;1382;-73
2023/03/11 11:31:23;;;;;;;;;;;;;;;21.57;32.67;93205.09;5001617;28;1890;-73
2023/03/11 11:33:58;;;;;;;;;;;;;;;21.47;32.45;93202.38;4996420;28;1326;-73
2023/03/11 11:36:37;;;;;;;;;;;;;;;21.27;32.14;93192.31;4989451;28;1406;-73
2023/03/11 11:39:10;;;;;;;;;;;;;;;21.27;32.42;93206.44;5002275;28;1295;-73
2023/03/11 11:41:35;;;;;;;;;;;;;;;21.27;32.80;93198.44;4985122;28;1455;-72
2023/03/11 11:44:05;;;;;;;;;;;;;;;21.29;33.35;93183.00;5010691;28;1234;-73
2023/03/11 11:46:37;;;;;;;;;;;;;;;21.27;33.53;93179.78;4992660;28;1300;-73
2023/03/11 11:49:20;;;;;;;;;;;;;;;21.16;33.96;93177.28;5000410;28;1347;-73
2023/03/11 11:51:45;;;;;;;;;;;;;;;21.10;33.95;93173.75;4997777;28;1886;-73
2023/03/11 11:54:16;;;;;;;;;;;;;;;21.07;34.50;93171.59;4999837;28;1500;-73
2023/03/11 11:56:41;;;;;;;;;;;;;;;21.07;34.11;93158.28;5014464;28;1505;-73
2023/03/11 11:59:14;;;;;;;;;;;;;;;21.02;34.53;93155.56;5004700;28;1111;-73
2023/03/11 12:01:47;;;;;;;;;;;;;;;21.20;34.24;93157.84;5014882;28;1310;-73
2023/03/11 12:04:36;;;;;;;;;;;;;;;21.36;34.27;93152.63;5014375;28;1196;-73
2023/03/11 12:07:14;;;;;;;;;;;;;;;21.44;33.78;93152.19;5022028;28;1396;-73
2023/03/11 12:10:09;;;;;;;;;;;;;;;21.50;33.71;93151.97;4986795;28;1517;-73
2023/03/11 12:12:57;;;;;;;;;;;;;;;21.46;33.93;93160.72;4961303;28;1188;-73
2023/03/11 12:15:27;;;;;;;;;;;;;;;21.63;33.75;93155.25;5013068;28;1452;-73
2023/03/11 12:17:56;;;;;;;;;;;;;;;21.50;33.04;93148.50;5009674;28;1304;-72
2023/03/11 12:20:27;;;;;;;;;;;;;;;21.62;32.95;93135.75;5004523;28;1436;-72
2023/03/11 12:23:11;;;;;;;;;;;;;;;21.53;32.96;93139.97;5020322;28;1195;-73
2023/03/11 12:26:06;;;;;;;;;;;;;;;21.56;32.10;93131.47;5022435;28;1480;-73
2023/03/11 12:28:53;;;;;;;;;;;;;;;21.38;31.83;93135.34;5002700;28;1516;-73
2023/03/11 12:31:19;;;;;;;;;;;;;;;21.47;32.22;93141.00;4965028;28;1970;-73
2023/03/11 12:33:45;;;;;;;;;;;;;;;21.52;32.18;93136.50;4995966;28;1346;-73
2023/03/11 12:36:24;;;;;;;;;;;;;;;21.47;31.53;93144.47;5032523;28;1223;-73
2023/03/11 12:38:51;;;;;;;;;;;;;;;21.53;32.02;93140.78;4982021;28;1937;-73
2023/03/11 12:41:29;;;;;;;;;;;;;;;21.53;31.85;93139.97;5014907;28;1449;-74
2023/03/11 12:44:01;;;;;;;;;;;;;;;21.44;31.66;93146.84;4984239;28;1586;-74
2023/03/11 12:46:56;;;;;;;;;;;;;;;21.42;31.85;93156.97;5014755;28;1364;-73
2023/03/11 12:49:23;;;;;;;;;;;;;;;21.47;31.62;93163.16;4982262;28;1345;-73
2023/03/11 12:52:03;;;;;;;;;;;;;;;21.34;31.51;93163.53;4994464;28;1977;-74
2023/03/11 12:54:36;;;;;;;;;;;;;;;21.34;31.58;93153.72;4993064;28;1209;-73
2023/03/11 12:57:20;;;;;;;;;;;;;;;21.30;31.39;93163.25;5009686;28;1179;-73
2023/03/11 13:00:07;;;;;;;;;;;;;;;21.27;31.39;93166.44;5004708;28;1334;-76